aviador You're here:

CYRV Decoded Metar

REVELSTOKE AIRPO in BC, CANADA
Report Time2017-05-28 23:00:00
UTC Time2017-05-29 00:06:29
Flight Rules vfr VFR
Wind220° at 03 kt
W.Decomp.*RWY 12: 0.3 kt HW 3.0 kt RCW
W.Rank220° ranks 26
Current wind is below 220° avg. (3.5)
Visibility9999 m
Phenomena:N/A
Clouds:N/A
Expected CloudBase > 8,800 ft AGL from Temp-Dew spread
CeilingNone
Temp30°C (ISA +18)
Dew Point08°C (25% RH)
Heat Index28.4°C
AAT28.4°C
QNH1018 hPa
Density Alt3,478 ft
Elevation1,453 ft
Report Wrong Elevation
Raw Report
CYRV 282300Z AUTO 22003KT 200V340 9SM CLR 30/08 A3005 RMK SLP173
DENSITY ALT 3300FT=

Extra information for CYRV:More info

Metar Taf Metar & Taf Last 4 Metars F.Rules Stats Wind Profile Meteogram Temp Stats Airport Information Weather charts Add Link Nearby VenuesMetar ALERT Operation Metar Decoded Social comments